createdAt,value
2023-04-17T00:00:50.313Z,53.70
2023-04-17T00:03:38.775Z,58.65
2023-04-17T00:06:27.308Z,58.55
2023-04-17T00:09:14.843Z,58.63
2023-04-17T00:12:02.439Z,63.38
2023-04-17T00:14:49.948Z,67.68
2023-04-17T00:17:37.458Z,63.25
2023-04-17T00:20:24.935Z,62.28
2023-04-17T00:23:12.429Z,64.18
2023-04-17T00:25:59.822Z,64.57
2023-04-17T00:28:48.944Z,64.38
2023-04-17T00:31:36.389Z,60.47
2023-04-17T00:34:23.919Z,64.57
2023-04-17T00:37:11.936Z,57.25
2023-04-17T00:39:59.343Z,59.33
2023-04-17T00:42:52.858Z,61.20
2023-04-17T00:45:41.731Z,68.25
2023-04-17T00:48:29.298Z,61.25
2023-04-17T00:51:16.910Z,64.15
2023-04-17T00:54:05.081Z,64.78
2023-04-17T00:56:56.576Z,60.00
2023-04-17T00:59:45.216Z,63.65
2023-04-17T01:02:32.724Z,65.45
2023-04-17T01:05:20.462Z,62.28
2023-04-17T01:08:08.267Z,56.45
2023-04-17T01:10:55.793Z,62.42
2023-04-17T01:13:51.049Z,59.25
2023-04-17T01:16:40.207Z,68.10
2023-04-17T01:19:28.676Z,58.40
2023-04-17T01:22:16.823Z,54.70
2023-04-17T01:25:05.782Z,59.10
2023-04-17T01:27:53.445Z,57.72
2023-04-17T01:30:40.947Z,60.00
2023-04-17T01:33:28.438Z,62.83
2023-04-17T01:36:16.544Z,61.22
2023-04-17T01:39:04.232Z,57.65
2023-04-17T01:41:51.675Z,54.78
2023-04-17T01:44:39.158Z,59.97
2023-04-17T01:47:26.658Z,57.33
2023-04-17T01:50:14.302Z,59.67
2023-04-17T01:53:01.731Z,65.97
2023-04-17T01:55:49.096Z,55.38
2023-04-17T01:58:36.596Z,59.42
2023-04-17T02:01:24.362Z,69.15
2023-04-17T02:04:11.911Z,62.70
2023-04-17T02:06:59.449Z,71.47
2023-04-17T02:09:47.079Z,66.32
2023-04-17T02:12:34.474Z,64.53
2023-04-17T02:15:21.977Z,63.55
2023-04-17T02:18:09.820Z,69.55
2023-04-17T02:20:57.299Z,68.22
2023-04-17T02:23:44.699Z,61.95
2023-04-17T02:26:32.153Z,64.90
2023-04-17T02:29:19.599Z,65.35
2023-04-17T02:32:07.055Z,64.75
2023-04-17T02:34:54.543Z,65.45
2023-04-17T02:37:41.981Z,66.85
2023-04-17T02:40:29.503Z,69.00
2023-04-17T02:43:17.264Z,69.30
2023-04-17T02:46:04.818Z,65.57
2023-04-17T02:48:52.307Z,67.55
2023-04-17T02:51:39.768Z,67.15
2023-04-17T02:54:27.187Z,68.65
2023-04-17T02:57:14.652Z,65.15
2023-04-17T03:00:02.291Z,68.47
2023-04-17T03:02:50.151Z,78.57
2023-04-17T03:05:37.660Z,72.55
2023-04-17T03:08:25.109Z,69.95
2023-04-17T03:11:12.696Z,68.93
2023-04-17T03:14:00.256Z,72.10
2023-04-17T03:16:47.839Z,69.32
2023-04-17T03:19:35.736Z,67.55
2023-04-17T03:22:23.233Z,72.70
2023-04-17T03:25:11.192Z,76.28
2023-04-17T03:27:58.689Z,74.90
2023-04-17T03:30:46.284Z,70.45
2023-04-17T03:33:33.757Z,83.45
2023-04-17T03:36:21.281Z,74.38
2023-04-17T03:39:08.752Z,79.97
2023-04-17T03:41:56.346Z,75.30
2023-04-17T03:44:43.766Z,75.18
2023-04-17T03:47:31.285Z,76.40
2023-04-17T03:50:18.823Z,77.05
2023-04-17T03:53:06.309Z,75.65
2023-04-17T03:55:53.815Z,82.47
2023-04-17T03:58:41.234Z,81.43
2023-04-17T04:01:28.746Z,86.55
2023-04-17T04:04:17.078Z,79.72
2023-04-17T04:07:04.748Z,87.40
2023-04-17T04:09:52.191Z,75.93
2023-04-17T04:12:39.633Z,87.05
2023-04-17T04:15:27.362Z,79.82
2023-04-17T04:18:14.787Z,86.90
2023-04-17T04:21:02.270Z,84.60
2023-04-17T04:23:49.891Z,87.82
2023-04-17T04:26:40.872Z,83.43
2023-04-17T04:29:28.388Z,79.93
2023-04-17T04:32:16.682Z,89.00
2023-04-17T04:35:04.789Z,90.30
2023-04-17T04:37:54.735Z,93.07
2023-04-17T04:40:43.902Z,84.00
2023-04-17T04:43:33.478Z,89.55
2023-04-17T04:46:20.974Z,79.60
2023-04-17T04:49:08.601Z,85.60
2023-04-17T04:51:56.666Z,85.85
2023-04-17T04:54:44.638Z,80.95
2023-04-17T04:57:32.134Z,77.68
2023-04-17T05:00:20.081Z,77.95
2023-04-17T05:03:08.014Z,74.65
2023-04-17T05:05:55.887Z,77.10
2023-04-17T05:08:43.369Z,69.15
2023-04-17T05:11:31.144Z,72.82
2023-04-17T05:14:18.621Z,55.75
2023-04-17T05:17:06.311Z,59.17
2023-04-17T05:19:53.784Z,55.80
2023-04-17T05:22:41.436Z,60.10
2023-04-17T05:25:29.086Z,59.50
2023-04-17T05:28:17.239Z,60.63
2023-04-17T05:31:05.094Z,59.63
2023-04-17T05:33:52.598Z,53.47
2023-04-17T05:36:40.059Z,55.08
2023-04-17T05:39:27.563Z,51.30
2023-04-17T05:42:15.000Z,48.60
2023-04-17T05:45:02.493Z,48.33
2023-04-17T05:47:50.654Z,52.33
2023-04-17T05:50:42.594Z,47.97
2023-04-17T05:53:33.357Z,43.72
2023-04-17T05:57:35.154Z,45.63
2023-04-17T06:00:23.241Z,47.50
2023-04-17T06:03:11.360Z,48.50
2023-04-17T06:05:59.597Z,44.60
2023-04-17T06:08:47.510Z,44.47
2023-04-17T06:11:35.349Z,40.55
2023-04-17T06:14:22.902Z,35.10
2023-04-17T06:17:12.415Z,41.08
2023-04-17T06:20:00.215Z,37.15
2023-04-17T06:22:47.874Z,37.97
2023-04-17T06:25:35.410Z,42.13
2023-04-17T06:28:22.893Z,39.42
2023-04-17T06:31:10.532Z,36.50
2023-04-17T06:33:58.083Z,39.55
2023-04-17T06:36:45.571Z,38.20
2023-04-17T06:39:34.130Z,36.25
2023-04-17T06:42:21.670Z,37.67
2023-04-17T06:45:09.448Z,40.63
2023-04-17T06:47:57.042Z,44.63
2023-04-17T06:50:45.091Z,45.80
2023-04-17T06:53:32.649Z,50.53
2023-04-17T06:56:20.991Z,49.92
2023-04-17T06:59:08.989Z,47.55
2023-04-17T07:01:56.679Z,43.58
2023-04-17T07:04:44.301Z,48.65
2023-04-17T07:07:34.040Z,44.40
2023-04-17T07:10:21.583Z,49.95
2023-04-17T07:13:09.051Z,40.05
2023-04-17T07:15:57.512Z,44.72
2023-04-17T07:18:45.058Z,46.15
2023-04-17T07:21:32.877Z,38.78
2023-04-17T07:24:20.373Z,38.97
2023-04-17T07:27:07.930Z,41.78
2023-04-17T07:29:56.057Z,42.78
2023-04-17T07:32:43.550Z,38.72
2023-04-17T07:35:31.136Z,39.33
2023-04-17T07:38:18.591Z,40.85
2023-04-17T07:41:06.080Z,39.10
2023-04-17T07:43:53.607Z,40.63
2023-04-17T07:46:41.520Z,37.33
2023-04-17T07:49:29.012Z,34.88
2023-04-17T07:52:18.331Z,40.03
2023-04-17T07:55:07.235Z,37.55
2023-04-17T07:57:55.032Z,37.80
2023-04-17T08:00:43.397Z,38.15
2023-04-17T08:03:31.933Z,34.72
2023-04-17T08:06:19.598Z,39.30
2023-04-17T08:09:07.300Z,46.53
2023-04-17T08:11:57.878Z,35.67
2023-04-17T08:14:45.878Z,35.88
2023-04-17T08:17:33.575Z,33.15
2023-04-17T08:20:21.997Z,34.28
2023-04-17T08:23:09.570Z,32.75
2023-04-17T08:25:57.046Z,35.17
2023-04-17T08:28:44.523Z,32.97
2023-04-17T08:31:32.177Z,34.85
2023-04-17T08:34:19.682Z,35.13
2023-04-17T08:37:07.289Z,32.42
2023-04-17T08:39:54.835Z,30.25
2023-04-17T08:42:43.515Z,32.97
2023-04-17T08:45:32.815Z,30.75
2023-04-17T08:48:24.303Z,28.73
2023-04-17T08:51:11.907Z,27.40
2023-04-17T08:53:59.516Z,29.05
2023-04-17T08:56:47.482Z,32.15
2023-04-17T08:59:34.984Z,30.65
2023-04-17T09:02:23.687Z,30.23
2023-04-17T09:05:21.118Z,32.40
2023-04-17T09:08:09.728Z,29.35
2023-04-17T09:10:57.297Z,28.63
2023-04-17T09:13:44.968Z,29.50
2023-04-17T09:16:32.731Z,28.73
2023-04-17T09:19:20.410Z,34.10
2023-04-17T09:22:18.520Z,31.05
2023-04-17T09:25:19.508Z,32.05
2023-04-17T09:28:14.039Z,30.75
2023-04-17T09:31:05.906Z,27.83
2023-04-17T09:33:58.861Z,32.05
2023-04-17T09:36:46.641Z,29.35
2023-04-17T09:39:34.242Z,28.00
2023-04-17T09:42:21.686Z,29.42
2023-04-17T09:45:19.746Z,25.30
2023-04-17T09:48:12.492Z,21.98
2023-04-17T09:51:00.141Z,22.73
2023-04-17T09:53:49.148Z,20.85
2023-04-17T09:56:38.072Z,18.77
2023-04-17T09:59:26.697Z,15.93
2023-04-17T10:02:16.455Z,15.98
2023-04-17T10:05:08.590Z,17.27
2023-04-17T10:07:56.771Z,12.98
2023-04-17T10:10:46.492Z,13.93
2023-04-17T10:13:38.653Z,14.07
2023-04-17T10:16:37.184Z,12.65
2023-04-17T10:19:32.485Z,13.07
2023-04-17T10:22:19.951Z,12.45
2023-04-17T10:25:13.270Z,12.32
2023-04-17T10:28:02.179Z,12.52
2023-04-17T10:30:56.892Z,12.35
2023-04-17T10:33:51.649Z,12.02
2023-04-17T10:36:39.053Z,12.13
2023-04-17T10:39:26.508Z,13.75
2023-04-17T10:42:21.811Z,15.27
2023-04-17T10:45:19.313Z,14.55
2023-04-17T10:48:06.920Z,14.40
2023-04-17T10:50:58.124Z,14.77
2023-04-17T10:53:46.365Z,15.32
2023-04-17T10:56:39.522Z,12.35
2023-04-17T10:59:30.321Z,12.30
2023-04-17T11:02:33.127Z,11.13
2023-04-17T11:05:21.333Z,11.95
2023-04-17T11:08:10.043Z,9.43
2023-04-17T11:10:57.640Z,10.75
2023-04-17T11:13:48.882Z,12.18
2023-04-17T11:16:41.910Z,7.38
2023-04-17T11:19:29.744Z,8.30
2023-04-17T11:22:19.295Z,8.27
2023-04-17T11:25:07.220Z,9.50
2023-04-17T11:27:59.599Z,9.25
2023-04-17T11:30:47.254Z,7.40
2023-04-17T11:33:38.191Z,6.55
2023-04-17T11:36:26.226Z,6.40
2023-04-17T11:39:15.739Z,8.35
2023-04-17T11:42:03.751Z,7.10
2023-04-17T11:44:51.255Z,6.97
2023-04-17T11:47:38.783Z,7.05
2023-04-17T11:50:30.840Z,7.03
2023-04-17T11:53:18.292Z,7.90
2023-04-17T11:56:15.630Z,8.35
2023-04-17T11:59:04.978Z,5.03
2023-04-17T12:01:53.146Z,6.43
2023-04-17T12:04:41.225Z,6.95
2023-04-17T12:07:28.794Z,4.55
2023-04-17T12:10:16.220Z,5.50
2023-04-17T12:13:03.743Z,9.23
2023-04-17T12:15:51.293Z,6.80
2023-04-17T12:18:38.859Z,10.27
2023-04-17T12:21:26.293Z,7.72
2023-04-17T12:24:14.465Z,6.80
2023-04-17T12:27:02.411Z,6.35
2023-04-17T12:29:49.936Z,10.77
2023-04-17T12:32:39.480Z,7.40
2023-04-17T12:35:27.697Z,6.35
2023-04-17T12:38:15.175Z,9.40
2023-04-17T12:41:02.646Z,7.63
2023-04-17T12:43:50.130Z,6.97
2023-04-17T12:46:37.667Z,6.00
2023-04-17T12:49:25.375Z,5.97
2023-04-17T12:52:12.863Z,7.85
2023-04-17T12:55:01.077Z,8.07
2023-04-17T12:57:48.553Z,7.43
2023-04-17T13:00:36.233Z,7.55
2023-04-17T13:03:23.822Z,6.75
2023-04-17T13:06:11.608Z,6.70
2023-04-17T13:08:59.012Z,6.57
2023-04-17T13:11:46.544Z,6.53
2023-04-17T13:14:34.173Z,6.82
2023-04-17T13:17:22.153Z,7.55
2023-04-17T13:20:10.350Z,9.93
2023-04-17T13:22:58.986Z,8.95
2023-04-17T13:25:47.341Z,8.90
2023-04-17T13:28:34.775Z,7.10
2023-04-17T13:31:24.511Z,6.90
2023-04-17T13:34:12.116Z,7.20
2023-04-17T13:36:59.655Z,7.43
2023-04-17T13:39:47.216Z,7.72
2023-04-17T13:42:34.788Z,6.13
2023-04-17T13:45:22.360Z,6.75
2023-04-17T13:48:11.596Z,7.07
2023-04-17T13:50:59.072Z,6.43
2023-04-17T13:53:46.642Z,9.25
2023-04-17T13:56:34.097Z,6.90
2023-04-17T13:59:21.545Z,5.70
2023-04-17T14:02:09.266Z,7.18
2023-04-17T14:04:56.983Z,7.30
2023-04-17T14:07:44.688Z,6.53
2023-04-17T14:10:32.152Z,6.30
2023-04-17T14:13:19.640Z,6.57
2023-04-17T14:16:07.402Z,7.72
2023-04-17T14:18:55.154Z,6.43
2023-04-17T14:21:44.315Z,6.38
2023-04-17T14:24:31.927Z,8.40
2023-04-17T14:27:19.385Z,9.73
2023-04-17T14:30:08.377Z,6.53
2023-04-17T14:32:55.988Z,6.78
2023-04-17T14:35:43.649Z,6.53
2023-04-17T14:38:31.170Z,6.65
2023-04-17T14:41:18.698Z,6.45
2023-04-17T14:44:06.531Z,8.65
2023-04-17T14:46:54.118Z,8.90
2023-04-17T14:49:41.599Z,6.88
2023-04-17T14:52:28.992Z,6.65
2023-04-17T14:55:16.608Z,7.70
2023-04-17T14:58:04.068Z,7.47
2023-04-17T15:00:51.568Z,6.63
2023-04-17T15:03:39.469Z,8.32
2023-04-17T15:06:27.190Z,6.25
2023-04-17T15:09:15.082Z,6.20
2023-04-17T15:12:02.937Z,6.72
2023-04-17T15:14:50.463Z,8.45
2023-04-17T15:17:38.062Z,7.43
2023-04-17T15:20:25.729Z,8.02
2023-04-17T15:23:13.280Z,8.55
2023-04-17T15:26:01.355Z,8.35
2023-04-17T15:28:49.003Z,10.20
2023-04-17T15:31:37.427Z,8.02
2023-04-17T15:34:25.137Z,8.85
2023-04-17T15:37:12.594Z,8.82
2023-04-17T15:40:00.245Z,6.20
2023-04-17T15:42:47.782Z,7.43
2023-04-17T15:45:35.612Z,8.75
2023-04-17T15:48:23.230Z,8.02
2023-04-17T15:51:10.678Z,7.72
2023-04-17T15:53:58.138Z,12.13
2023-04-17T15:56:45.627Z,7.07
2023-04-17T15:59:33.223Z,8.43
2023-04-17T16:02:20.975Z,9.82
2023-04-17T16:05:08.823Z,8.63
2023-04-17T16:07:56.247Z,7.53
2023-04-17T16:10:43.708Z,6.20
2023-04-17T16:13:31.170Z,8.07
2023-04-17T16:16:18.703Z,12.45
2023-04-17T16:19:07.304Z,9.57
2023-04-17T16:21:56.702Z,8.13
2023-04-17T16:24:44.156Z,8.82
2023-04-17T16:27:33.118Z,10.05
2023-04-17T16:30:21.441Z,10.40
2023-04-17T16:33:09.219Z,10.73
2023-04-17T16:35:57.362Z,8.63
2023-04-17T16:38:46.057Z,6.53
2023-04-17T16:41:33.580Z,7.55
2023-04-17T16:44:21.456Z,7.80
2023-04-17T16:47:13.765Z,13.40
2023-04-17T16:50:01.980Z,9.73
2023-04-17T16:52:50.383Z,8.07
2023-04-17T16:55:37.837Z,13.00
2023-04-17T16:58:25.714Z,8.95
2023-04-17T17:01:13.588Z,8.80
2023-04-17T17:04:01.218Z,12.00
2023-04-17T17:06:48.781Z,9.50
2023-04-17T17:09:36.297Z,7.40
2023-04-17T17:12:24.170Z,10.45
2023-04-17T17:15:11.874Z,10.20
2023-04-17T17:17:59.369Z,7.57
2023-04-17T17:20:48.985Z,11.75
2023-04-17T17:23:37.918Z,12.75
2023-04-17T17:26:25.825Z,8.43
2023-04-17T17:29:13.563Z,10.45
2023-04-17T17:32:01.238Z,9.85
2023-04-17T17:34:48.794Z,20.63
2023-04-17T17:37:36.372Z,9.48
2023-04-17T17:40:23.867Z,13.38
2023-04-17T17:43:12.293Z,12.13
2023-04-17T17:45:59.814Z,9.98
2023-04-17T17:48:47.695Z,11.13
2023-04-17T17:51:35.251Z,13.23
2023-04-17T17:54:22.774Z,12.95
2023-04-17T17:57:10.510Z,11.68
2023-04-17T17:59:58.256Z,12.27
2023-04-17T18:02:46.140Z,11.50
2023-04-17T18:05:33.722Z,11.27
2023-04-17T18:08:21.260Z,16.27
2023-04-17T18:11:08.973Z,10.30
2023-04-17T18:13:57.261Z,10.52
2023-04-17T18:16:44.686Z,15.25
2023-04-17T18:19:32.764Z,11.57
2023-04-17T18:22:21.458Z,12.30
2023-04-17T18:25:09.488Z,13.65
2023-04-17T18:27:57.102Z,12.25
2023-04-17T18:30:44.538Z,11.77
2023-04-17T18:33:32.069Z,13.25
2023-04-17T18:36:19.556Z,14.13
2023-04-17T18:39:06.986Z,16.08
2023-04-17T18:41:54.486Z,16.63
2023-04-17T18:44:41.963Z,14.73
2023-04-17T18:47:29.994Z,13.48
2023-04-17T18:50:17.518Z,16.30
2023-04-17T18:53:04.999Z,20.67
2023-04-17T18:55:52.717Z,11.52
2023-04-17T18:58:40.515Z,14.32
2023-04-17T19:01:28.041Z,13.82
2023-04-17T19:04:19.336Z,14.85
2023-04-17T19:07:06.835Z,17.50
2023-04-17T19:09:54.278Z,16.45
2023-04-17T19:12:43.128Z,12.48
2023-04-17T19:15:30.647Z,13.20
2023-04-17T19:18:18.117Z,11.88
2023-04-17T19:21:05.601Z,18.70
2023-04-17T19:23:53.134Z,11.63
2023-04-17T19:26:41.230Z,17.52
2023-04-17T19:29:28.748Z,14.77
2023-04-17T19:32:16.906Z,15.15
2023-04-17T19:35:04.821Z,15.13
2023-04-17T19:37:52.287Z,12.15
2023-04-17T19:40:39.819Z,13.88
2023-04-17T19:43:27.306Z,13.48
2023-04-17T19:46:15.629Z,14.82
2023-04-17T19:49:03.374Z,16.88
2023-04-17T19:51:50.871Z,14.45
2023-04-17T19:54:38.988Z,13.82
2023-04-17T19:57:26.743Z,14.93
2023-04-17T20:00:14.719Z,14.55
2023-04-17T20:03:02.342Z,13.50
2023-04-17T20:05:50.066Z,17.33
2023-04-17T20:08:37.507Z,13.48
2023-04-17T20:11:25.266Z,16.75
2023-04-17T20:14:14.742Z,14.07
2023-04-17T20:17:02.320Z,17.45
2023-04-17T20:19:49.893Z,18.15
2023-04-17T20:22:39.524Z,15.05
2023-04-17T20:25:27.122Z,16.20
2023-04-17T20:28:14.626Z,16.67
2023-04-17T20:31:03.570Z,15.75
2023-04-17T20:33:51.078Z,14.82
2023-04-17T20:36:38.603Z,19.70
2023-04-17T20:39:26.268Z,13.18
2023-04-17T20:42:13.641Z,19.20
2023-04-17T20:45:01.096Z,16.90
2023-04-17T20:50:39.887Z,14.85
2023-04-17T20:53:27.385Z,19.35
2023-04-17T20:56:14.926Z,14.45
2023-04-17T20:59:02.345Z,15.15
2023-04-17T21:01:51.703Z,15.07
2023-04-17T21:04:39.412Z,14.73
2023-04-17T21:07:26.862Z,16.27
2023-04-17T21:10:14.347Z,15.77
2023-04-17T21:13:02.160Z,14.70
2023-04-17T21:15:49.715Z,17.30
2023-04-17T21:18:37.558Z,15.75
2023-04-17T21:21:25.014Z,13.23
2023-04-17T21:24:12.709Z,14.23
2023-04-17T21:27:01.279Z,13.77
2023-04-17T21:29:49.121Z,16.95
2023-04-17T21:32:37.114Z,17.70
2023-04-17T21:35:24.623Z,17.50
2023-04-17T21:38:12.612Z,15.57
2023-04-17T21:41:00.173Z,16.48
2023-04-17T21:43:47.730Z,16.42
2023-04-17T21:46:35.147Z,20.77
2023-04-17T21:49:23.673Z,16.92
2023-04-17T21:52:11.218Z,14.60
2023-04-17T21:55:03.272Z,15.27
2023-04-17T21:57:50.972Z,13.80
2023-04-17T22:00:38.468Z,15.85
2023-04-17T22:03:26.081Z,18.00
2023-04-17T22:06:14.183Z,15.80
2023-04-17T22:09:01.825Z,15.25
2023-04-17T22:11:49.838Z,14.52
2023-04-17T22:14:37.353Z,14.52
2023-04-17T22:17:24.979Z,15.75
2023-04-17T22:20:12.858Z,16.60
2023-04-17T22:23:00.245Z,15.18
2023-04-17T22:25:47.761Z,20.67
2023-04-17T22:28:35.219Z,18.02
2023-04-17T22:31:22.699Z,16.73
2023-04-17T22:34:10.330Z,13.68
2023-04-17T22:36:58.113Z,15.25
2023-04-17T22:39:45.680Z,14.32
2023-04-17T22:42:33.105Z,16.38
2023-04-17T22:45:20.690Z,16.58
2023-04-17T22:48:08.190Z,14.98
2023-04-17T22:50:56.427Z,14.57
2023-04-17T22:53:44.011Z,16.00
2023-04-17T22:56:31.479Z,17.95
2023-04-17T22:59:18.902Z,20.77
2023-04-17T23:02:06.350Z,14.00
2023-04-17T23:04:53.836Z,19.10
2023-04-17T23:07:41.297Z,21.08
2023-04-17T23:10:28.792Z,14.07
2023-04-17T23:13:16.414Z,16.10
2023-04-17T23:16:04.351Z,20.08
2023-04-17T23:18:51.971Z,20.75
2023-04-17T23:21:39.423Z,22.40
2023-04-17T23:24:26.846Z,20.35
2023-04-17T23:27:14.287Z,16.73
2023-04-17T23:30:02.200Z,20.90
2023-04-17T23:32:51.962Z,15.20
2023-04-17T23:35:39.453Z,18.85
2023-04-17T23:38:27.100Z,20.58
2023-04-17T23:41:14.584Z,18.63
2023-04-17T23:44:03.714Z,21.88
2023-04-17T23:46:51.430Z,16.58
2023-04-17T23:49:38.967Z,18.35
2023-04-17T23:52:27.863Z,19.33
2023-04-17T23:55:15.566Z,15.43
2023-04-17T23:58:03.252Z,14.95
